createdAt,value
2023-02-17T00:01:33.597Z,98536.31
2023-02-17T00:04:19.110Z,98538.59
2023-02-17T00:07:04.570Z,98524.72
2023-02-17T00:09:49.947Z,98397.88
2023-02-17T00:12:36.718Z,98583.25
2023-02-17T00:15:22.653Z,98548.28
2023-02-17T00:18:08.345Z,98585.59
2023-02-17T00:20:53.871Z,98582.19
2023-02-17T00:23:39.335Z,98400.94
2023-02-17T00:26:25.234Z,98583.25
2023-02-17T00:29:10.733Z,98467.66
2023-02-17T00:31:56.664Z,98551.00
2023-02-17T00:34:42.549Z,98578.06
2023-02-17T00:37:28.685Z,98550.69
2023-02-17T00:40:15.363Z,98514.22
2023-02-17T00:43:00.875Z,98590.41
2023-02-17T00:45:46.185Z,98590.50
2023-02-17T00:48:33.046Z,98582.59
2023-02-17T00:51:19.620Z,98363.22
2023-02-17T00:54:05.898Z,98580.88
2023-02-17T00:56:51.885Z,98573.50
2023-02-17T00:59:37.637Z,98446.34
2023-02-17T01:02:26.597Z,98565.88
2023-02-17T01:05:14.216Z,98579.19
2023-02-17T01:08:03.927Z,98401.66
2023-02-17T01:10:51.945Z,98544.75
2023-02-17T01:13:37.569Z,98562.94
2023-02-17T01:16:39.589Z,98431.03
2023-02-17T01:19:25.388Z,98529.31
2023-02-17T01:22:12.506Z,98574.75
2023-02-17T01:24:58.166Z,98576.56
2023-02-17T01:27:47.288Z,98589.63
2023-02-17T01:30:32.943Z,98508.16
2023-02-17T01:33:18.599Z,98348.41
2023-02-17T01:36:06.550Z,98389.84
2023-02-17T01:38:52.429Z,98595.34
2023-02-17T01:41:37.805Z,98568.63
2023-02-17T01:44:25.509Z,98540.53
2023-02-17T01:47:13.001Z,98561.88
2023-02-17T01:49:58.860Z,98529.31
2023-02-17T01:52:44.851Z,98567.34
2023-02-17T01:55:33.145Z,98584.13
2023-02-17T01:58:22.131Z,98471.31
2023-02-17T02:01:08.325Z,98557.63
2023-02-17T02:03:54.382Z,98544.56
2023-02-17T02:06:43.789Z,98370.88
2023-02-17T02:09:41.779Z,98572.31
2023-02-17T02:12:30.584Z,98502.22
2023-02-17T02:15:19.739Z,98501.88
2023-02-17T02:18:23.760Z,98531.47
2023-02-17T02:21:18.291Z,98535.50
2023-02-17T02:24:22.651Z,98563.66
2023-02-17T02:27:18.044Z,98366.69
2023-02-17T02:30:21.868Z,98543.50
2023-02-17T02:33:30.549Z,98565.44
2023-02-17T02:36:37.220Z,98401.72
2023-02-17T02:39:26.761Z,98447.16
2023-02-17T02:42:16.639Z,98358.97
2023-02-17T02:45:02.414Z,98377.97
2023-02-17T02:47:53.740Z,98535.50
2023-02-17T02:51:03.654Z,98569.91
2023-02-17T02:53:55.175Z,98539.50
2023-02-17T02:57:04.371Z,98522.53
2023-02-17T03:00:30.866Z,98435.34
2023-02-17T03:03:48.587Z,98524.72
2023-02-17T03:06:40.278Z,98557.44
2023-02-17T03:09:27.567Z,98562.47
2023-02-17T03:12:12.943Z,98525.34
2023-02-17T03:15:04.569Z,98502.78
2023-02-17T03:17:50.058Z,98491.91
2023-02-17T03:20:42.014Z,98350.63
2023-02-17T03:23:27.584Z,98349.13
2023-02-17T03:26:12.957Z,98535.25
2023-02-17T03:28:58.242Z,98528.72
2023-02-17T03:31:43.924Z,98533.59
2023-02-17T03:34:29.227Z,98538.31
2023-02-17T03:37:14.576Z,98476.97
2023-02-17T03:39:59.991Z,98341.31
2023-02-17T03:42:45.263Z,98557.63
2023-02-17T03:45:30.677Z,98534.63
2023-02-17T03:48:16.011Z,98379.91
2023-02-17T03:51:20.648Z,98395.59
2023-02-17T03:54:06.748Z,98390.41
2023-02-17T03:56:52.050Z,98535.13
2023-02-17T03:59:37.601Z,98501.81
2023-02-17T04:02:23.221Z,98512.25
2023-02-17T04:05:08.505Z,98371.31
2023-02-17T04:07:54.063Z,98369.00
2023-02-17T04:10:39.466Z,98520.91
2023-02-17T04:13:25.781Z,98538.19
2023-02-17T04:16:12.509Z,98502.75
2023-02-17T04:18:57.748Z,98515.63
2023-02-17T04:21:43.263Z,98328.47
2023-02-17T04:24:28.605Z,98509.09
2023-02-17T04:27:14.020Z,98307.59
2023-02-17T04:29:59.484Z,98436.97
2023-02-17T04:32:44.690Z,98367.75
2023-02-17T04:35:30.749Z,98503.41
2023-02-17T04:38:16.567Z,98429.44
2023-02-17T04:41:02.378Z,98317.63
2023-02-17T04:43:47.662Z,98479.72
2023-02-17T04:46:33.076Z,98510.56
2023-02-17T04:49:18.508Z,98481.00
2023-02-17T04:52:04.432Z,98340.22
2023-02-17T04:54:49.788Z,98510.78
2023-02-17T04:57:35.516Z,98413.69
2023-02-17T05:00:21.453Z,98350.06
2023-02-17T05:03:07.314Z,98511.63
2023-02-17T05:05:52.771Z,98453.31
2023-02-17T05:08:38.262Z,98324.28
2023-02-17T05:11:23.744Z,98476.13
2023-02-17T05:14:09.164Z,98443.06
2023-02-17T05:16:54.770Z,98540.97
2023-02-17T05:19:40.110Z,98510.56
2023-02-17T05:22:26.592Z,98548.25
2023-02-17T05:25:12.307Z,98448.44
2023-02-17T05:27:57.951Z,98515.22
2023-02-17T05:30:43.508Z,98333.03
2023-02-17T05:33:29.334Z,98479.94
2023-02-17T05:36:15.247Z,98528.94
2023-02-17T05:39:00.884Z,98348.97
2023-02-17T05:41:46.103Z,98493.25
2023-02-17T05:44:31.621Z,98354.91
2023-02-17T05:47:16.979Z,98446.03
2023-02-17T05:50:02.786Z,98485.94
2023-02-17T05:52:48.129Z,98556.38
2023-02-17T05:55:33.476Z,98378.75
2023-02-17T05:58:19.139Z,98396.69
2023-02-17T06:01:12.245Z,98569.09
2023-02-17T06:03:57.769Z,98532.13
2023-02-17T06:06:43.174Z,98375.47
2023-02-17T06:09:28.617Z,98537.00
2023-02-17T06:12:14.073Z,98541.44
2023-02-17T06:14:59.643Z,98351.38
2023-02-17T06:17:44.878Z,98500.56
2023-02-17T06:20:30.634Z,98537.97
2023-02-17T06:23:16.399Z,98386.66
2023-02-17T06:26:02.015Z,98532.56
2023-02-17T06:28:47.721Z,98532.25
2023-02-17T06:31:33.837Z,98479.78
2023-02-17T06:34:19.357Z,98356.25
2023-02-17T06:37:04.863Z,98438.38
2023-02-17T06:39:50.169Z,98354.69
2023-02-17T06:42:35.834Z,98541.22
2023-02-17T06:45:21.143Z,98349.94
2023-02-17T06:48:06.571Z,98360.06
2023-02-17T06:50:53.288Z,98544.28
2023-02-17T06:53:39.745Z,98518.63
2023-02-17T06:56:25.892Z,98541.00
2023-02-17T06:59:11.457Z,98536.88
2023-02-17T07:01:59.086Z,98552.41
2023-02-17T07:04:47.850Z,98550.91
2023-02-17T07:07:36.347Z,98546.16
2023-02-17T07:10:24.176Z,98549.88
2023-02-17T07:13:11.945Z,98551.34
2023-02-17T07:16:03.126Z,98549.22
2023-02-17T07:18:49.405Z,98530.19
2023-02-17T07:21:36.358Z,98538.69
2023-02-17T07:24:22.913Z,98534.72
2023-02-17T07:27:10.862Z,98358.34
2023-02-17T07:29:57.000Z,98535.44
2023-02-17T07:32:42.438Z,98363.47
2023-02-17T07:35:28.471Z,98500.59
2023-02-17T07:38:14.129Z,98357.56
2023-02-17T07:41:09.560Z,98537.97
2023-02-17T07:43:56.933Z,98514.22
2023-02-17T07:46:43.142Z,98532.34
2023-02-17T07:49:29.284Z,98519.47
2023-02-17T07:52:18.190Z,98462.56
2023-02-17T07:55:04.223Z,98476.41
2023-02-17T07:57:49.877Z,98524.72
2023-02-17T08:00:35.437Z,98534.63
2023-02-17T08:03:21.700Z,98529.19
2023-02-17T08:06:12.950Z,98513.34
2023-02-17T08:09:17.471Z,98512.84
2023-02-17T08:12:21.368Z,98519.31
2023-02-17T08:15:10.118Z,98478.97
2023-02-17T08:17:55.866Z,98348.59
2023-02-17T08:20:41.324Z,98533.41
2023-02-17T08:23:27.336Z,98536.38
2023-02-17T08:26:14.896Z,98532.91
2023-02-17T08:29:01.160Z,98516.91
2023-02-17T08:31:51.533Z,98530.53
2023-02-17T08:34:38.238Z,98467.38
2023-02-17T08:37:24.075Z,98497.75
2023-02-17T08:40:10.198Z,98521.69
2023-02-17T08:42:56.774Z,98361.34
2023-02-17T08:45:42.971Z,98532.75
2023-02-17T08:48:28.471Z,98400.94
2023-02-17T08:51:23.457Z,98460.78
2023-02-17T08:54:11.272Z,98520.97
2023-02-17T08:56:58.610Z,98524.50
2023-02-17T08:59:48.478Z,98398.81
2023-02-17T09:02:35.974Z,98516.59
2023-02-17T09:05:23.160Z,98371.19
2023-02-17T09:08:10.978Z,98306.09
2023-02-17T09:10:57.183Z,98453.59
2023-02-17T09:13:46.770Z,98520.25
2023-02-17T09:16:35.476Z,98516.53
2023-02-17T09:19:24.871Z,98351.16
2023-02-17T09:22:26.114Z,98501.78
2023-02-17T09:25:16.181Z,98420.28
2023-02-17T09:28:01.660Z,98471.28
2023-02-17T09:30:48.445Z,98429.69
2023-02-17T09:33:34.762Z,98426.72
2023-02-17T09:36:23.080Z,98480.94
2023-02-17T09:39:12.288Z,98482.56
2023-02-17T09:41:59.016Z,98315.63
2023-02-17T09:44:49.180Z,98491.31
2023-02-17T09:47:58.054Z,98333.25
2023-02-17T09:51:12.492Z,98465.00
2023-02-17T09:54:13.698Z,98484.81
2023-02-17T09:57:01.750Z,98450.47
2023-02-17T09:59:55.667Z,98284.66
2023-02-17T10:03:12.994Z,98413.41
2023-02-17T10:06:28.584Z,98471.56
2023-02-17T10:09:19.843Z,98470.06
2023-02-17T10:12:10.107Z,98463.75
2023-02-17T10:15:09.499Z,98454.81
2023-02-17T10:18:05.680Z,98357.81
2023-02-17T10:21:07.286Z,98308.41
2023-02-17T10:23:52.862Z,98444.03
2023-02-17T10:26:56.913Z,98319.47
2023-02-17T10:30:14.404Z,98306.59
2023-02-17T10:33:11.971Z,98438.59
2023-02-17T10:36:19.991Z,98441.19
2023-02-17T10:39:36.238Z,98402.25
2023-02-17T10:42:37.918Z,98365.41
2023-02-17T10:45:41.742Z,98421.53
2023-02-17T10:48:35.833Z,98315.03
2023-02-17T10:51:28.157Z,98436.94
2023-02-17T10:54:42.416Z,98407.31
2023-02-17T10:57:33.343Z,98224.00
2023-02-17T11:00:19.634Z,98385.03
2023-02-17T11:03:05.224Z,98414.47
2023-02-17T11:05:57.039Z,98374.84
2023-02-17T11:08:51.423Z,98325.72
2023-02-17T11:11:37.084Z,98397.25
2023-02-17T11:14:33.650Z,98315.41
2023-02-17T11:17:28.170Z,98420.69
2023-02-17T11:20:13.588Z,98331.31
2023-02-17T11:23:16.460Z,98224.38
2023-02-17T11:26:09.434Z,98342.41
2023-02-17T11:28:55.308Z,98376.84
2023-02-17T11:31:41.394Z,98340.44
2023-02-17T11:34:30.330Z,98360.81
2023-02-17T11:37:20.324Z,98366.69
2023-02-17T11:40:26.444Z,98304.94
2023-02-17T11:43:19.020Z,98192.22
2023-02-17T11:46:13.926Z,98209.72
2023-02-17T11:49:31.213Z,98368.91
2023-02-17T11:52:35.960Z,98382.53
2023-02-17T11:56:09.968Z,98358.78
2023-02-17T11:59:43.951Z,98340.59
2023-02-17T12:02:59.013Z,98338.31
2023-02-17T12:06:09.079Z,98331.47
2023-02-17T12:09:11.090Z,98337.50
2023-02-17T12:12:15.232Z,98336.31
2023-02-17T12:15:11.720Z,98174.03
2023-02-17T12:18:10.147Z,98291.97
2023-02-17T12:21:10.732Z,98320.69
2023-02-17T12:24:07.881Z,98327.97
2023-02-17T12:27:21.356Z,98220.72
2023-02-17T12:30:14.653Z,98338.50
2023-02-17T12:33:20.781Z,98318.28
2023-02-17T12:36:13.182Z,98322.22
2023-02-17T12:39:12.523Z,98230.69
2023-02-17T12:42:11.561Z,98278.41
2023-02-17T12:45:04.014Z,98295.28
2023-02-17T12:47:55.518Z,98269.25
2023-02-17T12:50:54.971Z,98138.59
2023-02-17T12:53:43.505Z,98283.78
2023-02-17T12:56:42.369Z,98272.88
2023-02-17T12:59:34.327Z,98233.13
2023-02-17T13:02:25.102Z,98294.16
2023-02-17T13:05:26.470Z,98210.47
2023-02-17T13:08:23.221Z,98281.31
2023-02-17T13:11:13.608Z,98134.22
2023-02-17T13:14:11.362Z,98280.19
2023-02-17T13:16:57.309Z,98236.22
2023-02-17T13:19:42.693Z,98239.84
2023-02-17T13:22:28.238Z,98228.88
2023-02-17T13:25:29.643Z,98103.06
2023-02-17T13:28:34.373Z,98250.59
2023-02-17T13:31:25.647Z,98185.72
2023-02-17T13:34:11.117Z,98253.34
2023-02-17T13:36:58.005Z,98246.59
2023-02-17T13:39:44.041Z,98257.38
2023-02-17T13:42:41.385Z,98198.19
2023-02-17T13:45:29.746Z,98242.38
2023-02-17T13:48:20.918Z,98242.53
2023-02-17T13:51:09.949Z,98253.59
2023-02-17T13:53:56.089Z,98108.09
2023-02-17T13:56:42.675Z,98231.13
2023-02-17T13:59:28.331Z,98233.44
2023-02-17T14:02:35.371Z,98158.72
2023-02-17T14:05:27.942Z,98061.09
2023-02-17T14:08:27.433Z,98111.63
2023-02-17T14:11:15.339Z,98216.16
2023-02-17T14:14:08.207Z,98172.56
2023-02-17T14:16:58.764Z,98176.94
2023-02-17T14:19:49.304Z,98235.53
2023-02-17T14:22:35.874Z,98111.06
2023-02-17T14:25:29.541Z,98036.72
2023-02-17T14:28:27.282Z,98100.38
2023-02-17T14:31:20.248Z,98156.44
2023-02-17T14:34:05.849Z,98194.50
2023-02-17T14:36:51.380Z,98063.88
2023-02-17T14:39:37.734Z,98150.91
2023-02-17T14:42:23.181Z,98036.28
2023-02-17T14:45:09.231Z,98175.00
2023-02-17T14:47:54.682Z,98074.91
2023-02-17T14:50:44.653Z,98043.84
2023-02-17T14:53:36.483Z,98040.75
2023-02-17T14:56:27.472Z,98044.19
2023-02-17T14:59:12.892Z,98177.44
2023-02-17T15:01:58.338Z,98009.06
2023-02-17T15:04:44.081Z,98175.47
2023-02-17T15:07:29.740Z,98099.00
2023-02-17T15:10:20.723Z,98167.66
2023-02-17T15:13:06.587Z,98125.75
2023-02-17T15:15:52.534Z,98163.91
2023-02-17T15:18:38.099Z,98149.84
2023-02-17T15:21:31.105Z,98022.38
2023-02-17T15:24:27.254Z,98117.69
2023-02-17T15:27:17.368Z,98155.84
2023-02-17T15:30:03.130Z,98068.16
2023-02-17T15:32:48.990Z,98100.75
2023-02-17T15:35:34.556Z,98138.25
2023-02-17T15:38:20.436Z,98149.31
2023-02-17T15:41:13.671Z,97983.00
2023-02-17T15:44:01.330Z,98087.50
2023-02-17T15:46:49.843Z,98158.03
2023-02-17T15:49:35.554Z,98153.78
2023-02-17T15:52:21.500Z,98149.06
2023-02-17T15:55:07.642Z,98153.00
2023-02-17T15:57:58.690Z,98123.22
2023-02-17T16:00:50.564Z,98125.31
2023-02-17T16:03:36.770Z,98151.84
2023-02-17T16:06:22.518Z,97958.47
2023-02-17T16:09:08.392Z,98133.22
2023-02-17T16:11:55.987Z,98107.81
2023-02-17T16:14:41.676Z,98136.22
2023-02-17T16:17:28.193Z,98148.06
2023-02-17T16:20:14.851Z,98052.72
2023-02-17T16:23:01.159Z,97996.41
2023-02-17T16:25:48.073Z,98040.44
2023-02-17T16:28:33.924Z,97994.25
2023-02-17T16:31:19.937Z,98042.28
2023-02-17T16:34:05.237Z,98094.69
2023-02-17T16:36:53.034Z,98093.31
2023-02-17T16:39:39.994Z,98095.09
2023-02-17T16:42:26.214Z,97933.22
2023-02-17T16:45:25.655Z,97967.81
2023-02-17T16:48:14.528Z,98081.59
2023-02-17T16:51:00.394Z,98050.44
2023-02-17T16:53:45.651Z,97925.88
2023-02-17T16:56:37.638Z,98057.84
2023-02-17T16:59:24.807Z,98106.41
2023-02-17T17:02:11.588Z,98039.84
2023-02-17T17:04:57.400Z,97933.75
2023-02-17T17:07:42.849Z,98059.25
2023-02-17T17:10:31.699Z,97891.81
2023-02-17T17:13:18.044Z,97926.44
2023-02-17T17:16:03.624Z,98040.97
2023-02-17T17:18:49.537Z,98031.88
2023-02-17T17:21:35.956Z,97872.41
2023-02-17T17:24:21.905Z,97873.88
2023-02-17T17:27:07.619Z,98040.75
2023-02-17T17:29:52.962Z,98029.09
2023-02-17T17:32:38.677Z,98031.31
2023-02-17T17:35:24.777Z,98038.38
2023-02-17T17:38:14.279Z,98021.44
2023-02-17T17:41:13.130Z,97996.91
2023-02-17T17:43:59.084Z,98040.97
2023-02-17T17:46:45.008Z,98010.44
2023-02-17T17:49:30.589Z,97840.84
2023-02-17T17:52:15.836Z,97818.16
2023-02-17T17:55:01.214Z,97886.25
2023-02-17T17:57:48.515Z,97924.88
2023-02-17T18:00:33.828Z,97854.72
2023-02-17T18:03:19.409Z,97974.69
2023-02-17T18:06:06.520Z,97840.13
2023-02-17T18:08:54.836Z,97926.91
2023-02-17T18:11:43.038Z,97949.28
2023-02-17T18:14:29.298Z,97896.88
2023-02-17T18:17:18.066Z,97926.75
2023-02-17T18:20:05.213Z,97789.41
2023-02-17T18:22:51.185Z,97949.28
2023-02-17T18:25:36.526Z,97938.94
2023-02-17T18:28:22.039Z,97885.56
2023-02-17T18:31:09.914Z,97856.19
2023-02-17T18:33:55.986Z,97931.59
2023-02-17T18:36:41.834Z,97752.53
2023-02-17T18:39:27.416Z,97926.44
2023-02-17T18:42:13.057Z,97909.88
2023-02-17T18:44:58.428Z,97806.75
2023-02-17T18:47:44.372Z,97855.97
2023-02-17T18:50:33.073Z,97738.66
2023-02-17T18:53:18.921Z,97845.06
2023-02-17T18:56:11.073Z,97924.34
2023-02-17T18:58:57.305Z,97908.63
2023-02-17T19:01:43.512Z,97741.28
2023-02-17T19:04:29.717Z,97901.66
2023-02-17T19:07:15.270Z,97861.78
2023-02-17T19:10:01.168Z,97885.75
2023-02-17T19:12:47.354Z,97910.94
2023-02-17T19:15:33.061Z,97818.94
2023-02-17T19:18:18.510Z,97845.34
2023-02-17T19:21:03.860Z,97708.00
2023-02-17T19:23:49.858Z,97872.41
2023-02-17T19:26:38.446Z,97711.66
2023-02-17T19:29:24.713Z,97874.63
2023-02-17T19:32:17.486Z,97851.19
2023-02-17T19:35:05.324Z,97797.16
2023-02-17T19:37:51.259Z,97843.28
2023-02-17T19:40:37.382Z,97843.47
2023-02-17T19:43:22.763Z,97844.94
2023-02-17T19:46:21.274Z,97826.97
2023-02-17T19:49:07.800Z,97828.25
2023-02-17T19:51:56.272Z,97809.38
2023-02-17T19:54:43.138Z,97831.00
2023-02-17T19:57:29.993Z,97827.38
2023-02-17T20:00:16.900Z,97819.66
2023-02-17T20:03:03.483Z,97814.53
2023-02-17T20:05:48.720Z,97664.97
2023-02-17T20:08:35.565Z,97776.81
2023-02-17T20:11:21.392Z,97756.31
2023-02-17T20:14:07.518Z,97672.31
2023-02-17T20:16:53.450Z,97608.81
2023-02-17T20:19:39.645Z,97785.59
2023-02-17T20:22:25.745Z,97627.63
2023-02-17T20:25:11.285Z,97828.47
2023-02-17T20:28:02.322Z,97799.13
2023-02-17T20:30:55.384Z,97744.56
2023-02-17T20:33:41.275Z,97806.81
2023-02-17T20:36:26.829Z,97746.03
2023-02-17T20:39:12.279Z,97595.75
2023-02-17T20:41:59.425Z,97762.41
2023-02-17T20:44:45.928Z,97756.19
2023-02-17T20:47:31.496Z,97680.47
2023-02-17T20:50:19.706Z,97634.69
2023-02-17T20:53:05.364Z,97574.31
2023-02-17T20:55:51.466Z,97743.69
2023-02-17T20:58:36.977Z,97721.31
2023-02-17T21:01:22.336Z,97586.38
2023-02-17T21:04:08.282Z,97712.00
2023-02-17T21:06:54.110Z,97593.66
2023-02-17T21:09:39.571Z,97649.25
2023-02-17T21:12:31.540Z,97671.69
2023-02-17T21:15:33.774Z,97700.81
2023-02-17T21:18:24.464Z,97533.38
2023-02-17T21:21:11.573Z,97654.16
2023-02-17T21:23:58.081Z,97613.34
2023-02-17T21:26:43.816Z,97515.44
2023-02-17T21:29:29.648Z,97637.72
2023-02-17T21:32:15.184Z,97536.63
2023-02-17T21:35:01.019Z,97629.41
2023-02-17T21:37:46.688Z,97503.53
2023-02-17T21:40:32.175Z,97656.28
2023-02-17T21:43:37.691Z,97669.34
2023-02-17T21:46:24.345Z,97635.06
2023-02-17T21:49:10.754Z,97665.47
2023-02-17T21:51:56.287Z,97569.88
2023-02-17T21:54:41.564Z,97551.19
2023-02-17T21:57:26.964Z,97642.22
2023-02-17T22:00:13.075Z,97595.88
2023-02-17T22:02:58.438Z,97627.63
2023-02-17T22:05:43.960Z,97466.84
2023-02-17T22:08:29.376Z,97582.31
2023-02-17T22:11:16.638Z,97580.16
2023-02-17T22:14:05.236Z,97644.44
2023-02-17T22:16:50.872Z,97469.38
2023-02-17T22:19:36.271Z,97640.81
2023-02-17T22:22:21.711Z,97476.88
2023-02-17T22:25:08.403Z,97453.31
2023-02-17T22:27:53.996Z,97631.59
2023-02-17T22:30:39.457Z,97583.38
2023-02-17T22:33:24.804Z,97603.03
2023-02-17T22:36:16.071Z,97561.63
2023-02-17T22:39:02.740Z,97625.69
2023-02-17T22:41:48.218Z,97606.63
2023-02-17T22:44:33.617Z,97620.53
2023-02-17T22:47:18.903Z,97479.13
2023-02-17T22:50:04.930Z,97570.06
2023-02-17T22:52:50.222Z,97419.16
2023-02-17T22:55:35.529Z,97546.56
2023-02-17T22:58:22.340Z,97447.59
2023-02-17T23:01:12.438Z,97413.22
2023-02-17T23:03:58.635Z,97550.50
2023-02-17T23:06:45.102Z,97560.69
2023-02-17T23:09:30.553Z,97573.38
2023-02-17T23:12:16.129Z,97581.44
2023-02-17T23:15:01.725Z,97563.84
2023-02-17T23:17:59.388Z,97419.31
2023-02-17T23:20:48.482Z,97579.34
2023-02-17T23:23:34.362Z,97566.44
2023-02-17T23:26:19.606Z,97454.63
2023-02-17T23:29:05.013Z,97516.34
2023-02-17T23:31:50.533Z,97586.81
2023-02-17T23:34:35.791Z,97387.06
2023-02-17T23:37:21.503Z,97581.66
2023-02-17T23:40:07.640Z,97554.84
2023-02-17T23:42:53.160Z,97433.38
2023-02-17T23:45:39.270Z,97585.41
2023-02-17T23:48:24.607Z,97551.34
2023-02-17T23:51:17.584Z,97571.41
2023-02-17T23:54:03.368Z,97396.22
2023-02-17T23:56:48.723Z,97562.50
2023-02-17T23:59:34.210Z,97569.56
